sensor_id;sensor_type;location;lat;lon;timestamp;pressure;altitude;pressure_sealevel;temperature
68588;BMP180;55560;52.174;20.996;2023-05-07T00:02:01;101132.40;;;6.50
68588;BMP180;55560;52.174;20.996;2023-05-07T00:04:31;101131.00;;;6.50
68588;BMP180;55560;52.174;20.996;2023-05-07T00:07:04;101134.80;;;6.50
68588;BMP180;55560;52.174;20.996;2023-05-07T00:09:33;101129.00;;;6.50
68588;BMP180;55560;52.174;20.996;2023-05-07T00:12:01;101127.60;;;6.50
68588;BMP180;55560;52.174;20.996;2023-05-07T00:14:30;101122.80;;;6.48
68588;BMP180;55560;52.174;20.996;2023-05-07T00:16:59;101125.80;;;6.46
68588;BMP180;55560;52.174;20.996;2023-05-07T00:19:27;101125.20;;;6.40
68588;BMP180;55560;52.174;20.996;2023-05-07T00:21:55;101130.60;;;6.40
68588;BMP180;55560;52.174;20.996;2023-05-07T00:24:24;101132.60;;;6.40
68588;BMP180;55560;52.174;20.996;2023-05-07T00:26:52;101135.00;;;6.32
68588;BMP180;55560;52.174;20.996;2023-05-07T00:29:20;101139.40;;;6.40
68588;BMP180;55560;52.174;20.996;2023-05-07T00:31:49;101133.00;;;6.38
68588;BMP180;55560;52.174;20.996;2023-05-07T00:34:19;101139.20;;;6.30
68588;BMP180;55560;52.174;20.996;2023-05-07T00:36:48;101141.80;;;6.30
68588;BMP180;55560;52.174;20.996;2023-05-07T00:39:16;101140.80;;;6.30
68588;BMP180;55560;52.174;20.996;2023-05-07T00:41:44;101139.40;;;6.30
68588;BMP180;55560;52.174;20.996;2023-05-07T00:44:13;101138.40;;;6.20
68588;BMP180;55560;52.174;20.996;2023-05-07T00:46:43;101140.40;;;6.20
68588;BMP180;55560;52.174;20.996;2023-05-07T00:49:12;101140.60;;;6.20
68588;BMP180;55560;52.174;20.996;2023-05-07T00:51:40;101139.00;;;6.20
68588;BMP180;55560;52.174;20.996;2023-05-07T00:54:08;101135.60;;;6.20
68588;BMP180;55560;52.174;20.996;2023-05-07T00:56:37;101139.80;;;6.20
68588;BMP180;55560;52.174;20.996;2023-05-07T00:59:06;101147.40;;;6.20
68588;BMP180;55560;52.174;20.996;2023-05-07T01:01:38;101150.20;;;6.20
68588;BMP180;55560;52.174;20.996;2023-05-07T01:04:06;101155.20;;;6.20
68588;BMP180;55560;52.174;20.996;2023-05-07T01:06:34;101155.00;;;6.20
68588;BMP180;55560;52.174;20.996;2023-05-07T01:09:03;101157.60;;;6.20
68588;BMP180;55560;52.174;20.996;2023-05-07T01:11:32;101152.60;;;6.20
68588;BMP180;55560;52.174;20.996;2023-05-07T01:14:01;101159.40;;;6.20
68588;BMP180;55560;52.174;20.996;2023-05-07T01:16:29;101161.80;;;6.20
68588;BMP180;55560;52.174;20.996;2023-05-07T01:18:57;101162.80;;;6.20
68588;BMP180;55560;52.174;20.996;2023-05-07T01:21:26;101163.00;;;6.22
68588;BMP180;55560;52.174;20.996;2023-05-07T01:23:57;101157.60;;;6.30
68588;BMP180;55560;52.174;20.996;2023-05-07T01:26:25;101158.40;;;6.30
68588;BMP180;55560;52.174;20.996;2023-05-07T01:28:53;101153.20;;;6.20
68588;BMP180;55560;52.174;20.996;2023-05-07T01:31:21;101150.60;;;6.20
68588;BMP180;55560;52.174;20.996;2023-05-07T01:33:51;101145.80;;;6.20
68588;BMP180;55560;52.174;20.996;2023-05-07T01:36:21;101154.80;;;6.10
68588;BMP180;55560;52.174;20.996;2023-05-07T01:38:53;101156.20;;;6.10
68588;BMP180;55560;52.174;20.996;2023-05-07T01:41:22;101163.00;;;6.10
68588;BMP180;55560;52.174;20.996;2023-05-07T01:43:50;101164.40;;;6.10
68588;BMP180;55560;52.174;20.996;2023-05-07T01:46:20;101164.60;;;6.10
68588;BMP180;55560;52.174;20.996;2023-05-07T01:48:48;101162.20;;;6.10
68588;BMP180;55560;52.174;20.996;2023-05-07T01:51:16;101162.20;;;6.16
68588;BMP180;55560;52.174;20.996;2023-05-07T01:53:44;101157.60;;;6.20
68588;BMP180;55560;52.174;20.996;2023-05-07T01:56:15;101159.40;;;6.20
68588;BMP180;55560;52.174;20.996;2023-05-07T01:58:45;101158.60;;;6.20
68588;BMP180;55560;52.174;20.996;2023-05-07T02:01:14;101156.60;;;6.20
68588;BMP180;55560;52.174;20.996;2023-05-07T02:03:42;101161.20;;;6.20
68588;BMP180;55560;52.174;20.996;2023-05-07T02:06:15;101158.60;;;6.20
68588;BMP180;55560;52.174;20.996;2023-05-07T02:08:43;101156.00;;;6.20
68588;BMP180;55560;52.174;20.996;2023-05-07T02:11:12;101157.80;;;6.20
68588;BMP180;55560;52.174;20.996;2023-05-07T02:13:39;101154.80;;;6.20
68588;BMP180;55560;52.174;20.996;2023-05-07T02:16:07;101153.40;;;6.26
68588;BMP180;55560;52.174;20.996;2023-05-07T02:18:35;101148.80;;;6.26
68588;BMP180;55560;52.174;20.996;2023-05-07T02:21:03;101154.20;;;6.22
68588;BMP180;55560;52.174;20.996;2023-05-07T02:23:31;101150.00;;;6.20
68588;BMP180;55560;52.174;20.996;2023-05-07T02:25:59;101158.40;;;6.20
68588;BMP180;55560;52.174;20.996;2023-05-07T02:28:27;101152.20;;;6.20
68588;BMP180;55560;52.174;20.996;2023-05-07T02:31:03;101159.80;;;6.20
68588;BMP180;55560;52.174;20.996;2023-05-07T02:33:31;101162.20;;;6.20
68588;BMP180;55560;52.174;20.996;2023-05-07T02:36:10;101165.40;;;6.20
68588;BMP180;55560;52.174;20.996;2023-05-07T02:38:49;101179.00;;;6.28
68588;BMP180;55560;52.174;20.996;2023-05-07T02:41:17;101172.40;;;6.30
68588;BMP180;55560;52.174;20.996;2023-05-07T02:43:45;101171.60;;;6.30
68588;BMP180;55560;52.174;20.996;2023-05-07T02:46:13;101172.60;;;6.30
68588;BMP180;55560;52.174;20.996;2023-05-07T02:48:44;101173.20;;;6.30
68588;BMP180;55560;52.174;20.996;2023-05-07T02:51:12;101176.20;;;6.28
68588;BMP180;55560;52.174;20.996;2023-05-07T02:53:40;101178.20;;;6.20
68588;BMP180;55560;52.174;20.996;2023-05-07T02:56:08;101176.00;;;6.20
68588;BMP180;55560;52.174;20.996;2023-05-07T02:58:36;101176.80;;;6.20
68588;BMP180;55560;52.174;20.996;2023-05-07T03:01:04;101175.00;;;6.20
68588;BMP180;55560;52.174;20.996;2023-05-07T03:03:39;101176.60;;;6.18
68588;BMP180;55560;52.174;20.996;2023-05-07T03:06:07;101179.60;;;6.10
68588;BMP180;55560;52.174;20.996;2023-05-07T03:08:35;101179.40;;;6.10
68588;BMP180;55560;52.174;20.996;2023-05-07T03:11:04;101179.20;;;6.10
68588;BMP180;55560;52.174;20.996;2023-05-07T03:13:32;101183.00;;;6.10
68588;BMP180;55560;52.174;20.996;2023-05-07T03:16:00;101181.20;;;6.10
68588;BMP180;55560;52.174;20.996;2023-05-07T03:18:28;101179.60;;;6.10
68588;BMP180;55560;52.174;20.996;2023-05-07T03:20:57;101183.20;;;6.10
68588;BMP180;55560;52.174;20.996;2023-05-07T03:23:25;101189.80;;;6.10
68588;BMP180;55560;52.174;20.996;2023-05-07T03:25:52;101192.20;;;6.10
68588;BMP180;55560;52.174;20.996;2023-05-07T03:28:21;101193.80;;;6.00
68588;BMP180;55560;52.174;20.996;2023-05-07T03:30:53;101199.00;;;6.02
68588;BMP180;55560;52.174;20.996;2023-05-07T03:33:21;101199.20;;;6.10
68588;BMP180;55560;52.174;20.996;2023-05-07T03:35:49;101208.40;;;6.10
68588;BMP180;55560;52.174;20.996;2023-05-07T03:38:21;101210.20;;;6.10
68588;BMP180;55560;52.174;20.996;2023-05-07T03:40:49;101210.00;;;6.10
68588;BMP180;55560;52.174;20.996;2023-05-07T03:43:17;101207.80;;;6.16
68588;BMP180;55560;52.174;20.996;2023-05-07T03:45:50;101214.60;;;6.20
68588;BMP180;55560;52.174;20.996;2023-05-07T03:48:21;101216.80;;;6.20
68588;BMP180;55560;52.174;20.996;2023-05-07T03:50:50;101226.00;;;6.20
68588;BMP180;55560;52.174;20.996;2023-05-07T03:53:19;101221.20;;;6.20
68588;BMP180;55560;52.174;20.996;2023-05-07T03:55:46;101222.20;;;6.20
68588;BMP180;55560;52.174;20.996;2023-05-07T03:58:15;101225.20;;;6.20
68588;BMP180;55560;52.174;20.996;2023-05-07T04:00:43;101226.20;;;6.18
68588;BMP180;55560;52.174;20.996;2023-05-07T04:03:18;101224.00;;;6.20
68588;BMP180;55560;52.174;20.996;2023-05-07T04:05:47;101230.20;;;6.16
68588;BMP180;55560;52.174;20.996;2023-05-07T04:08:15;101224.40;;;6.20
68588;BMP180;55560;52.174;20.996;2023-05-07T04:10:46;101232.60;;;6.20
68588;BMP180;55560;52.174;20.996;2023-05-07T04:13:14;101233.40;;;6.20
68588;BMP180;55560;52.174;20.996;2023-05-07T04:15:42;101242.60;;;6.20
68588;BMP180;55560;52.174;20.996;2023-05-07T04:18:11;101249.80;;;6.24
68588;BMP180;55560;52.174;20.996;2023-05-07T04:20:41;101245.80;;;6.20
68588;BMP180;55560;52.174;20.996;2023-05-07T04:23:10;101254.00;;;6.26
68588;BMP180;55560;52.174;20.996;2023-05-07T04:25:39;101252.20;;;6.30
68588;BMP180;55560;52.174;20.996;2023-05-07T04:28:11;101252.40;;;6.30
68588;BMP180;55560;52.174;20.996;2023-05-07T04:30:40;101255.20;;;6.30
68588;BMP180;55560;52.174;20.996;2023-05-07T04:33:08;101258.20;;;6.30
68588;BMP180;55560;52.174;20.996;2023-05-07T04:35:37;101264.20;;;6.30
68588;BMP180;55560;52.174;20.996;2023-05-07T04:38:05;101262.80;;;6.30
68588;BMP180;55560;52.174;20.996;2023-05-07T04:40:35;101261.80;;;6.30
68588;BMP180;55560;52.174;20.996;2023-05-07T04:43:03;101263.60;;;6.30
68588;BMP180;55560;52.174;20.996;2023-05-07T04:45:33;101263.80;;;6.36
68588;BMP180;55560;52.174;20.996;2023-05-07T04:48:02;101266.20;;;6.40
68588;BMP180;55560;52.174;20.996;2023-05-07T04:50:30;101273.40;;;6.40
68588;BMP180;55560;52.174;20.996;2023-05-07T04:53:00;101275.40;;;6.32
68588;BMP180;55560;52.174;20.996;2023-05-07T04:55:29;101275.40;;;6.30
68588;BMP180;55560;52.174;20.996;2023-05-07T04:57:57;101282.00;;;6.30
68588;BMP180;55560;52.174;20.996;2023-05-07T05:00:25;101276.00;;;6.32
68588;BMP180;55560;52.174;20.996;2023-05-07T05:02:54;101286.60;;;6.40
68588;BMP180;55560;52.174;20.996;2023-05-07T05:05:22;101286.60;;;6.40
68588;BMP180;55560;52.174;20.996;2023-05-07T05:07:51;101291.40;;;6.46
68588;BMP180;55560;52.174;20.996;2023-05-07T05:10:20;101287.40;;;6.50
68588;BMP180;55560;52.174;20.996;2023-05-07T05:12:51;101296.60;;;6.50
68588;BMP180;55560;52.174;20.996;2023-05-07T05:15:20;101295.40;;;6.50
68588;BMP180;55560;52.174;20.996;2023-05-07T05:17:48;101296.60;;;6.56
68588;BMP180;55560;52.174;20.996;2023-05-07T05:20:16;101296.20;;;6.60
68588;BMP180;55560;52.174;20.996;2023-05-07T05:22:44;101296.40;;;6.60
68588;BMP180;55560;52.174;20.996;2023-05-07T05:25:12;101295.80;;;6.70
68588;BMP180;55560;52.174;20.996;2023-05-07T05:27:40;101302.80;;;6.70
68588;BMP180;55560;52.174;20.996;2023-05-07T05:30:09;101307.00;;;6.70
68588;BMP180;55560;52.174;20.996;2023-05-07T05:32:38;101304.60;;;6.80
68588;BMP180;55560;52.174;20.996;2023-05-07T05:35:07;101306.00;;;6.80
68588;BMP180;55560;52.174;20.996;2023-05-07T05:37:36;101304.00;;;6.90
68588;BMP180;55560;52.174;20.996;2023-05-07T05:40:04;101302.40;;;6.90
68588;BMP180;55560;52.174;20.996;2023-05-07T05:42:32;101305.20;;;7.00
68588;BMP180;55560;52.174;20.996;2023-05-07T05:45:00;101308.20;;;7.10
68588;BMP180;55560;52.174;20.996;2023-05-07T05:47:29;101310.20;;;7.16
68588;BMP180;55560;52.174;20.996;2023-05-07T05:49:57;101312.00;;;7.20
68588;BMP180;55560;52.174;20.996;2023-05-07T05:52:25;101316.40;;;7.30
68588;BMP180;55560;52.174;20.996;2023-05-07T05:54:53;101323.00;;;7.30
68588;BMP180;55560;52.174;20.996;2023-05-07T05:57:21;101320.20;;;7.40
68588;BMP180;55560;52.174;20.996;2023-05-07T05:59:50;101326.40;;;7.40
68588;BMP180;55560;52.174;20.996;2023-05-07T06:02:18;101330.20;;;7.48
68588;BMP180;55560;52.174;20.996;2023-05-07T06:04:46;101326.80;;;7.50
68588;BMP180;55560;52.174;20.996;2023-05-07T06:07:16;101331.00;;;7.50
68588;BMP180;55560;52.174;20.996;2023-05-07T06:09:44;101328.00;;;7.60
68588;BMP180;55560;52.174;20.996;2023-05-07T06:12:12;101327.20;;;7.70
68588;BMP180;55560;52.174;20.996;2023-05-07T06:14:43;101329.00;;;7.70
68588;BMP180;55560;52.174;20.996;2023-05-07T06:17:11;101334.20;;;7.78
68588;BMP180;55560;52.174;20.996;2023-05-07T06:19:39;101334.20;;;7.80
68588;BMP180;55560;52.174;20.996;2023-05-07T06:22:08;101339.00;;;7.88
68588;BMP180;55560;52.174;20.996;2023-05-07T06:24:36;101338.00;;;7.90
68588;BMP180;55560;52.174;20.996;2023-05-07T06:27:05;101340.00;;;8.00
68588;BMP180;55560;52.174;20.996;2023-05-07T06:29:33;101342.20;;;8.10
68588;BMP180;55560;52.174;20.996;2023-05-07T06:32:13;101341.20;;;8.20
68588;BMP180;55560;52.174;20.996;2023-05-07T06:34:42;101338.80;;;8.30
68588;BMP180;55560;52.174;20.996;2023-05-07T06:37:10;101343.80;;;8.52
68588;BMP180;55560;52.174;20.996;2023-05-07T06:40:06;101347.20;;;8.60
68588;BMP180;55560;52.174;20.996;2023-05-07T06:42:36;101336.60;;;8.64
68588;BMP180;55560;52.174;20.996;2023-05-07T06:45:20;101338.00;;;8.70
68588;BMP180;55560;52.174;20.996;2023-05-07T06:47:48;101332.00;;;8.74
68588;BMP180;55560;52.174;20.996;2023-05-07T06:50:16;101336.40;;;8.80
68588;BMP180;55560;52.174;20.996;2023-05-07T06:52:44;101338.20;;;8.78
68588;BMP180;55560;52.174;20.996;2023-05-07T06:55:13;101342.40;;;8.74
68588;BMP180;55560;52.174;20.996;2023-05-07T06:57:41;101346.80;;;8.70
68588;BMP180;55560;52.174;20.996;2023-05-07T07:00:09;101354.20;;;8.70
68588;BMP180;55560;52.174;20.996;2023-05-07T07:02:46;101351.20;;;8.76
68588;BMP180;55560;52.174;20.996;2023-05-07T07:05:15;101360.40;;;8.80
68588;BMP180;55560;52.174;20.996;2023-05-07T07:07:43;101354.60;;;8.80
68588;BMP180;55560;52.174;20.996;2023-05-07T07:10:11;101362.40;;;8.70
68588;BMP180;55560;52.174;20.996;2023-05-07T07:12:39;101367.80;;;8.70
68588;BMP180;55560;52.174;20.996;2023-05-07T07:15:07;101367.00;;;8.80
68588;BMP180;55560;52.174;20.996;2023-05-07T07:17:35;101367.40;;;8.88
68588;BMP180;55560;52.174;20.996;2023-05-07T07:20:04;101361.20;;;8.96
68588;BMP180;55560;52.174;20.996;2023-05-07T07:22:32;101369.60;;;9.00
68588;BMP180;55560;52.174;20.996;2023-05-07T07:25:00;101373.20;;;9.10
68588;BMP180;55560;52.174;20.996;2023-05-07T07:27:29;101375.60;;;9.20
68588;BMP180;55560;52.174;20.996;2023-05-07T07:29:57;101374.00;;;9.20
68588;BMP180;55560;52.174;20.996;2023-05-07T07:32:25;101377.40;;;9.30
68588;BMP180;55560;52.174;20.996;2023-05-07T07:34:54;101382.80;;;9.40
68588;BMP180;55560;52.174;20.996;2023-05-07T07:37:22;101382.40;;;9.50
68588;BMP180;55560;52.174;20.996;2023-05-07T07:39:50;101386.60;;;9.50
68588;BMP180;55560;52.174;20.996;2023-05-07T07:42:19;101391.00;;;9.50
68588;BMP180;55560;52.174;20.996;2023-05-07T07:44:48;101392.80;;;9.50
68588;BMP180;55560;52.174;20.996;2023-05-07T07:47:17;101392.40;;;9.50
68588;BMP180;55560;52.174;20.996;2023-05-07T07:49:47;101390.80;;;9.60
68588;BMP180;55560;52.174;20.996;2023-05-07T07:52:15;101396.00;;;9.60
68588;BMP180;55560;52.174;20.996;2023-05-07T07:54:44;101383.60;;;9.70
68588;BMP180;55560;52.174;20.996;2023-05-07T07:57:12;101395.80;;;9.70
68588;BMP180;55560;52.174;20.996;2023-05-07T07:59:40;101385.60;;;9.80
68588;BMP180;55560;52.174;20.996;2023-05-07T08:02:11;101394.00;;;9.90
68588;BMP180;55560;52.174;20.996;2023-05-07T08:04:39;101401.00;;;9.80
68588;BMP180;55560;52.174;20.996;2023-05-07T08:07:07;101392.60;;;9.70
68588;BMP180;55560;52.174;20.996;2023-05-07T08:09:38;101393.80;;;9.78
68588;BMP180;55560;52.174;20.996;2023-05-07T08:12:07;101403.60;;;9.90
68588;BMP180;55560;52.174;20.996;2023-05-07T08:14:35;101401.80;;;9.96
68588;BMP180;55560;52.174;20.996;2023-05-07T08:17:04;101405.80;;;9.90
68588;BMP180;55560;52.174;20.996;2023-05-07T08:19:32;101405.60;;;9.98
68588;BMP180;55560;52.174;20.996;2023-05-07T08:22:00;101410.20;;;10.00
68588;BMP180;55560;52.174;20.996;2023-05-07T08:24:28;101405.20;;;10.00
68588;BMP180;55560;52.174;20.996;2023-05-07T08:26:56;101408.40;;;10.08
68588;BMP180;55560;52.174;20.996;2023-05-07T08:29:24;101403.80;;;10.10
68588;BMP180;55560;52.174;20.996;2023-05-07T08:31:53;101410.20;;;10.20
68588;BMP180;55560;52.174;20.996;2023-05-07T08:34:22;101412.00;;;10.14
68588;BMP180;55560;52.174;20.996;2023-05-07T08:36:51;101403.80;;;10.10
68588;BMP180;55560;52.174;20.996;2023-05-07T08:39:20;101418.80;;;10.20
68588;BMP180;55560;52.174;20.996;2023-05-07T08:41:49;101418.20;;;10.20
68588;BMP180;55560;52.174;20.996;2023-05-07T08:44:22;101414.40;;;10.20
68588;BMP180;55560;52.174;20.996;2023-05-07T08:46:53;101416.60;;;10.28
68588;BMP180;55560;52.174;20.996;2023-05-07T08:49:23;101416.60;;;10.20
68588;BMP180;55560;52.174;20.996;2023-05-07T08:51:52;101419.80;;;10.18
68588;BMP180;55560;52.174;20.996;2023-05-07T08:54:21;101424.20;;;10.22
68588;BMP180;55560;52.174;20.996;2023-05-07T08:56:48;101436.20;;;10.20
68588;BMP180;55560;52.174;20.996;2023-05-07T08:59:16;101435.40;;;10.20
68588;BMP180;55560;52.174;20.996;2023-05-07T09:01:45;101438.00;;;10.18
68588;BMP180;55560;52.174;20.996;2023-05-07T09:04:13;101443.60;;;10.10
68588;BMP180;55560;52.174;20.996;2023-05-07T09:06:41;101447.40;;;10.10
68588;BMP180;55560;52.174;20.996;2023-05-07T09:09:14;101438.60;;;10.10
68588;BMP180;55560;52.174;20.996;2023-05-07T09:11:42;101438.00;;;10.04
68588;BMP180;55560;52.174;20.996;2023-05-07T09:14:10;101447.20;;;9.96
68588;BMP180;55560;52.174;20.996;2023-05-07T09:16:41;101447.20;;;10.00
68588;BMP180;55560;52.174;20.996;2023-05-07T09:19:09;101441.40;;;10.10
68588;BMP180;55560;52.174;20.996;2023-05-07T09:21:37;101449.00;;;10.20
68588;BMP180;55560;52.174;20.996;2023-05-07T09:24:07;101449.60;;;10.30
68588;BMP180;55560;52.174;20.996;2023-05-07T09:26:39;101443.40;;;10.52
68588;BMP180;55560;52.174;20.996;2023-05-07T09:29:10;101454.80;;;10.62
68588;BMP180;55560;52.174;20.996;2023-05-07T09:31:39;101457.60;;;10.80
68588;BMP180;55560;52.174;20.996;2023-05-07T09:34:08;101458.20;;;11.00
68588;BMP180;55560;52.174;20.996;2023-05-07T09:36:36;101458.40;;;11.10
68588;BMP180;55560;52.174;20.996;2023-05-07T09:39:04;101457.80;;;11.20
68588;BMP180;55560;52.174;20.996;2023-05-07T09:41:32;101468.20;;;11.20
68588;BMP180;55560;52.174;20.996;2023-05-07T09:44:08;101463.40;;;11.18
68588;BMP180;55560;52.174;20.996;2023-05-07T09:46:43;101458.80;;;11.20
68588;BMP180;55560;52.174;20.996;2023-05-07T09:49:23;101471.80;;;11.20
68588;BMP180;55560;52.174;20.996;2023-05-07T09:51:53;101472.20;;;11.26
68588;BMP180;55560;52.174;20.996;2023-05-07T09:54:23;101468.00;;;11.20
68588;BMP180;55560;52.174;20.996;2023-05-07T09:56:53;101469.40;;;11.10
68588;BMP180;55560;52.174;20.996;2023-05-07T09:59:24;101472.80;;;11.20
68588;BMP180;55560;52.174;20.996;2023-05-07T10:01:59;101472.40;;;11.10
68588;BMP180;55560;52.174;20.996;2023-05-07T10:04:31;101485.00;;;11.00
68588;BMP180;55560;52.174;20.996;2023-05-07T10:07:00;101485.20;;;10.82
68588;BMP180;55560;52.174;20.996;2023-05-07T10:09:30;101488.40;;;10.70
68588;BMP180;55560;52.174;20.996;2023-05-07T10:11:58;101491.20;;;10.70
68588;BMP180;55560;52.174;20.996;2023-05-07T10:14:27;101488.60;;;10.60
68588;BMP180;55560;52.174;20.996;2023-05-07T10:16:56;101481.40;;;10.60
68588;BMP180;55560;52.174;20.996;2023-05-07T10:19:26;101494.20;;;10.70
68588;BMP180;55560;52.174;20.996;2023-05-07T10:22:05;101493.80;;;10.80
68588;BMP180;55560;52.174;20.996;2023-05-07T10:24:36;101496.60;;;10.80
68588;BMP180;55560;52.174;20.996;2023-05-07T10:27:12;101492.60;;;10.80
68588;BMP180;55560;52.174;20.996;2023-05-07T10:30:00;101497.60;;;10.88
68588;BMP180;55560;52.174;20.996;2023-05-07T10:32:45;101506.80;;;10.90
68588;BMP180;55560;52.174;20.996;2023-05-07T10:35:24;101502.80;;;10.90
68588;BMP180;55560;52.174;20.996;2023-05-07T10:37:54;101500.80;;;10.90
68588;BMP180;55560;52.174;20.996;2023-05-07T10:40:22;101497.40;;;11.00
68588;BMP180;55560;52.174;20.996;2023-05-07T10:45:24;101504.00;;;10.90
68588;BMP180;55560;52.174;20.996;2023-05-07T10:48:13;101509.00;;;11.00
68588;BMP180;55560;52.174;20.996;2023-05-07T10:51:19;101509.60;;;11.00
68588;BMP180;55560;52.174;20.996;2023-05-07T10:56:45;101514.80;;;10.90
68588;BMP180;55560;52.174;20.996;2023-05-07T11:02:03;101516.00;;;10.90
68588;BMP180;55560;52.174;20.996;2023-05-07T11:05:21;101519.60;;;10.90
68588;BMP180;55560;52.174;20.996;2023-05-07T11:08:00;101517.00;;;11.00
68588;BMP180;55560;52.174;20.996;2023-05-07T11:10:56;101522.60;;;11.00
68588;BMP180;55560;52.174;20.996;2023-05-07T11:13:52;101528.40;;;10.98
68588;BMP180;55560;52.174;20.996;2023-05-07T11:16:28;101529.00;;;11.12
68588;BMP180;55560;52.174;20.996;2023-05-07T11:19:04;101529.20;;;11.24
68588;BMP180;55560;52.174;20.996;2023-05-07T11:21:39;101523.80;;;11.30
68588;BMP180;55560;52.174;20.996;2023-05-07T11:24:17;101529.60;;;11.40
68588;BMP180;55560;52.174;20.996;2023-05-07T11:26:55;101524.60;;;11.42
68588;BMP180;55560;52.174;20.996;2023-05-07T11:29:24;101529.60;;;11.50
68588;BMP180;55560;52.174;20.996;2023-05-07T11:31:57;101529.20;;;11.58
68588;BMP180;55560;52.174;20.996;2023-05-07T11:34:30;101526.80;;;11.60
68588;BMP180;55560;52.174;20.996;2023-05-07T11:36:59;101531.20;;;11.58
68588;BMP180;55560;52.174;20.996;2023-05-07T11:39:38;101532.40;;;11.60
68588;BMP180;55560;52.174;20.996;2023-05-07T11:42:05;101530.60;;;11.72
68588;BMP180;55560;52.174;20.996;2023-05-07T11:44:44;101526.60;;;11.90
68588;BMP180;55560;52.174;20.996;2023-05-07T11:47:18;101534.40;;;12.00
68588;BMP180;55560;52.174;20.996;2023-05-07T11:49:51;101532.20;;;12.16
68588;BMP180;55560;52.174;20.996;2023-05-07T11:52:22;101541.20;;;12.38
68588;BMP180;55560;52.174;20.996;2023-05-07T11:54:56;101531.20;;;12.40
68588;BMP180;55560;52.174;20.996;2023-05-07T11:57:24;101532.00;;;12.40
68588;BMP180;55560;52.174;20.996;2023-05-07T11:59:54;101534.40;;;12.50
68588;BMP180;55560;52.174;20.996;2023-05-07T12:02:22;101539.00;;;12.50
68588;BMP180;55560;52.174;20.996;2023-05-07T12:04:51;101535.20;;;12.30
68588;BMP180;55560;52.174;20.996;2023-05-07T12:07:19;101528.80;;;12.30
68588;BMP180;55560;52.174;20.996;2023-05-07T12:09:47;101531.40;;;12.20
68588;BMP180;55560;52.174;20.996;2023-05-07T12:12:15;101534.60;;;12.30
68588;BMP180;55560;52.174;20.996;2023-05-07T12:14:46;101541.00;;;12.30
68588;BMP180;55560;52.174;20.996;2023-05-07T12:17:14;101548.20;;;12.30
68588;BMP180;55560;52.174;20.996;2023-05-07T12:19:43;101547.60;;;12.28
68588;BMP180;55560;52.174;20.996;2023-05-07T12:22:12;101551.60;;;12.20
68588;BMP180;55560;52.174;20.996;2023-05-07T12:25:09;101546.00;;;12.10
68588;BMP180;55560;52.174;20.996;2023-05-07T12:27:38;101548.80;;;12.10
68588;BMP180;55560;52.174;20.996;2023-05-07T12:30:09;101553.80;;;12.20
68588;BMP180;55560;52.174;20.996;2023-05-07T12:32:37;101550.00;;;12.20
68588;BMP180;55560;52.174;20.996;2023-05-07T12:35:06;101552.00;;;12.20
68588;BMP180;55560;52.174;20.996;2023-05-07T12:37:36;101560.40;;;12.20
68588;BMP180;55560;52.174;20.996;2023-05-07T12:40:09;101552.00;;;12.22
68588;BMP180;55560;52.174;20.996;2023-05-07T12:42:40;101561.40;;;12.40
68588;BMP180;55560;52.174;20.996;2023-05-07T12:45:17;101561.60;;;12.42
68588;BMP180;55560;52.174;20.996;2023-05-07T12:47:46;101562.60;;;12.42
68588;BMP180;55560;52.174;20.996;2023-05-07T12:50:15;101567.80;;;12.40
68588;BMP180;55560;52.174;20.996;2023-05-07T12:52:45;101557.20;;;12.40
68588;BMP180;55560;52.174;20.996;2023-05-07T12:55:15;101559.40;;;12.50
68588;BMP180;55560;52.174;20.996;2023-05-07T12:57:50;101558.00;;;12.70
68588;BMP180;55560;52.174;20.996;2023-05-07T13:00:38;101561.40;;;12.78
68588;BMP180;55560;52.174;20.996;2023-05-07T13:03:06;101562.80;;;12.70
68588;BMP180;55560;52.174;20.996;2023-05-07T13:05:34;101560.20;;;12.70
68588;BMP180;55560;52.174;20.996;2023-05-07T13:08:02;101570.40;;;12.70
68588;BMP180;55560;52.174;20.996;2023-05-07T13:10:30;101568.00;;;12.60
68588;BMP180;55560;52.174;20.996;2023-05-07T13:12:58;101562.40;;;12.60
68588;BMP180;55560;52.174;20.996;2023-05-07T13:15:25;101560.00;;;12.72
68588;BMP180;55560;52.174;20.996;2023-05-07T13:17:54;101561.00;;;12.90
68588;BMP180;55560;52.174;20.996;2023-05-07T13:20:23;101562.80;;;13.10
68588;BMP180;55560;52.174;20.996;2023-05-07T13:22:51;101560.80;;;13.20
68588;BMP180;55560;52.174;20.996;2023-05-07T13:25:19;101561.20;;;13.30
68588;BMP180;55560;52.174;20.996;2023-05-07T13:27:47;101558.60;;;13.30
68588;BMP180;55560;52.174;20.996;2023-05-07T13:30:29;101561.20;;;13.20
68588;BMP180;55560;52.174;20.996;2023-05-07T13:32:57;101565.40;;;13.20
68588;BMP180;55560;52.174;20.996;2023-05-07T13:35:26;101563.00;;;13.20
68588;BMP180;55560;52.174;20.996;2023-05-07T13:37:54;101564.00;;;13.16
68588;BMP180;55560;52.174;20.996;2023-05-07T13:40:23;101560.80;;;13.00
68588;BMP180;55560;52.174;20.996;2023-05-07T13:42:51;101559.40;;;12.80
68588;BMP180;55560;52.174;20.996;2023-05-07T13:45:19;101559.80;;;12.66
68588;BMP180;55560;52.174;20.996;2023-05-07T13:47:47;101561.80;;;12.92
68588;BMP180;55560;52.174;20.996;2023-05-07T13:50:17;101562.00;;;14.80
68588;BMP180;55560;52.174;20.996;2023-05-07T13:52:44;101556.60;;;17.46
68588;BMP180;55560;52.174;20.996;2023-05-07T13:55:24;101569.40;;;19.72
68588;BMP180;55560;52.174;20.996;2023-05-07T13:57:57;101562.20;;;20.20
68588;BMP180;55560;52.174;20.996;2023-05-07T14:00:27;101565.60;;;20.50
68588;BMP180;55560;52.174;20.996;2023-05-07T14:02:56;101567.00;;;20.02
68588;BMP180;55560;52.174;20.996;2023-05-07T14:05:24;101566.40;;;19.02
68588;BMP180;55560;52.174;20.996;2023-05-07T14:07:52;101564.80;;;18.08
68588;BMP180;55560;52.174;20.996;2023-05-07T14:10:20;101572.80;;;18.90
68588;BMP180;55560;52.174;20.996;2023-05-07T14:12:48;101570.00;;;19.20
68588;BMP180;55560;52.174;20.996;2023-05-07T14:15:16;101566.60;;;18.60
68588;BMP180;55560;52.174;20.996;2023-05-07T14:17:44;101559.40;;;18.84